OIII

Mehrabad International Airport

Tehran, Iran
TAF OIII 180500Z 1806/1912 07004MPS 7000 NSC TEMPO 1815/1824 32007MPS
Issued Valid From Valid To
Aug-18 @ 05:00 UTC
(4 hours ago)
Aug-18 @ 06:00 UTC
(3 hours ago)
Aug-19 @ 12:00 UTC
(-1 days ago)
Aug-18 @ 06:00 to Aug-19 @ 12:00
TAF OIII 180500Z 1806/1912 07004MPS 7000 NSC
Wind Visibility Clouds
70° at 8 knots 7,001 meters
  • No significant clouds
Temporary Aug-18 @ 15:00 to Aug-19 @ 00:00
TEMPO 1815/1824 32007MPS
Wind
320° at 14 knots
TAF OIII 180500Z 1806/1912 07004MPS 7000 NSC TEMPO 1815/1824 32007MPS
Issued Aug-18 @ 05:00 UTC
(4 hours ago)
Valid From Aug-18 @ 06:00 UTC
(3 hours ago)
Valid To Aug-19 @ 12:00 UTC
(-1 days ago)
Aug-18 @ 06:00 - Aug-19 @ 12:00
Wind Visibility
70° at 8 knots 7,001 meters
Clouds
  • No significant clouds
Temporary Aug-18 @ 15:00 - Aug-19 @ 00:00
Wind
320° at 14 knots